Aérodrome :
LOGIN :

S'inscrire | Disclaimer

   EN    FR    IT 

 










Légende :    VFR   VFR Marginal   IFR   IFR Intensif   IFR Très Intensif
Visi : 
Plafond : 
>= 8 km
>= 3000ft
5 à 8 km
1000 à 3000 ft
1500m à 5 km
500 à 1000 ft
800 à 1500m
200 à 500 ft
< 800m
< 200 ft
Symboles :   Orages  Brouillard  Fortes neiges  Fortes précipitations  Vent > 20 kt
SIGMETs :   Divers  Orages  Givrage  Turbulence  Onde Orograph.  Cendres Volcan.







- Altitude de l'aérodrome : 1234 ft
- Code IATA : LUX


ELLX - Luxembourg Findel

DERNIER METAR :
  • 181450Z 20005KT 130V240 CAVOK 26/14 Q1014 NOSIG

METARs EXPIRÉS :
  • 181420Z 22006KT 190V260 9999 FEW048 26/14 Q1014 NOSIG
  • 181350Z 20008KT 170V240 9999 FEW045 25/12 Q1015 NOSIG
  • 181320Z 19007KT 160V240 9999 FEW045 25/14 Q1015 NOSIG
  • 181250Z 18007KT 140V230 9999 FEW045 25/14 Q1015 NOSIG
  • 181220Z VRB06KT 9999 FEW042 25/14 Q1015 NOSIG

TAF TAF ELLX
Valide du 18 à 12h jusqu'au 19 à 18h UTC


181100Z 1812/1918 18010KT 9999 FEW035
TEMPO 1912/1918 25015G30KT SHRA SCT030CB
PROB30
TEMPO 1914/1918 25025G40KT 3500 TSRAGR BKN030CB
ATIS : +352 4798 27300
Météo : +352 4798 27010 / 27050
Pas de NOTAMs connus pour ce terrain.



MET'MAP, la Météo Aéronautique d'un coup d'oeil ! - Copyright ORBIFLY Décembre 2007 - Disclaimer

ORBIFLY MET'MAP TEAM :

Programmation & Développement : Alexandra Zaïnal
Conception & Développement : Baudouin d'Aumeries
Co-Programmation & Développement : Marc-Olivier Méhu
Soutien technique & logistique : Manuel Goepfert

Contact : metmap@orbifly.com




SOURCES & CREDITS :

   NOAA